createdAt,value
2019-05-20T00:01:51.822Z,1006.1
2019-05-20T00:07:24.675Z,1006.1
2019-05-20T00:12:57.506Z,1006
2019-05-20T00:18:30.318Z,1006
2019-05-20T00:24:03.083Z,1006.1
2019-05-20T00:29:35.908Z,1006
2019-05-20T00:35:08.720Z,1006.1
2019-05-20T00:40:41.536Z,1006.1
2019-05-20T00:46:14.309Z,1006.1
2019-05-20T00:51:47.025Z,1006.2
2019-05-20T00:57:19.748Z,1006.1
2019-05-20T01:02:56.726Z,1006.1
2019-05-20T01:08:25.203Z,1006.1
2019-05-20T01:13:57.920Z,1006.1
2019-05-20T01:19:22.863Z,1006.1
2019-05-20T01:24:55.605Z,1006.2
2019-05-20T01:30:28.329Z,1006.1
2019-05-20T01:36:00.948Z,1006.1
2019-05-20T01:41:33.702Z,1006.2
2019-05-20T01:47:06.430Z,1006.2
2019-05-20T01:52:39.020Z,1006.3
2019-05-20T01:58:11.774Z,1006.2
2019-05-20T02:03:44.425Z,1006.2
2019-05-20T02:09:17.145Z,1006.3
2019-05-20T02:14:49.733Z,1006.3
2019-05-20T02:20:22.473Z,1006.3
2019-05-20T02:25:55.123Z,1006.3
2019-05-20T02:31:27.864Z,1006.3
2019-05-20T02:37:00.468Z,1006.3
2019-05-20T02:42:33.219Z,1006.4
2019-05-20T02:48:00.092Z,1006.3
2019-05-20T02:53:32.805Z,1006.3
2019-05-20T02:59:05.438Z,1006.3
2019-05-20T03:04:38.056Z,1006.3
2019-05-20T03:10:03.975Z,1006.4
2019-05-20T03:15:36.658Z,1006.5
2019-05-20T03:21:09.294Z,1006.5
2019-05-20T03:26:36.565Z,1006.5
2019-05-20T03:32:09.300Z,1006.5
2019-05-20T03:37:34.740Z,1006.5
2019-05-20T03:43:07.378Z,1006.5
2019-05-20T03:48:39.992Z,1006.5
2019-05-20T03:54:07.511Z,1006.5
2019-05-20T03:59:33.118Z,1006.6
2019-05-20T04:05:05.798Z,1006.6
2019-05-20T04:10:31.205Z,1006.6
2019-05-20T04:16:03.811Z,1006.7
2019-05-20T04:21:36.463Z,1006.7
2019-05-20T04:27:03.535Z,1006.7
2019-05-20T04:32:29.017Z,1006.7
2019-05-20T04:38:01.322Z,1006.7
2019-05-20T04:43:28.811Z,1006.7
2019-05-20T04:48:54.632Z,1006.8
2019-05-20T04:54:21.211Z,1006.8
2019-05-20T04:59:53.865Z,1006.9
2019-05-20T05:05:37.041Z,1006.9
2019-05-20T05:10:52.925Z,1006.9
2019-05-20T05:16:17.551Z,1006.9
2019-05-20T05:21:45.618Z,1006.9
2019-05-20T05:27:13.243Z,1007
2019-05-20T05:32:45.974Z,1007.1
2019-05-20T05:38:12.331Z,1007.1
2019-05-20T05:43:36.940Z,1007.1
2019-05-20T05:49:09.572Z,1007.2
2019-05-20T05:54:31.776Z,1007.1
2019-05-20T05:59:54.701Z,1007.2
2019-05-20T06:05:21.104Z,1007.2
2019-05-20T06:10:54.214Z,1007.2
2019-05-20T06:16:36.286Z,1007.4
2019-05-20T06:21:52.989Z,1007.3
2019-05-20T06:27:19.582Z,1007.4
2019-05-20T06:32:42.225Z,1007.5
2019-05-20T06:38:03.302Z,1007.5
2019-05-20T06:43:27.739Z,1007.6
2019-05-20T06:48:52.911Z,1007.5
2019-05-20T06:54:26.315Z,1007.5
2019-05-20T06:59:59.353Z,1007.7
2019-05-20T07:05:25.813Z,1007.8
2019-05-20T07:10:50.971Z,1007.8
2019-05-20T07:16:19.551Z,1007.8
2019-05-20T07:21:53.056Z,1007.9
2019-05-20T07:27:26.306Z,1007.8
2019-05-20T07:32:59.737Z,1007.8
2019-05-20T07:38:32.881Z,1007.8
2019-05-20T07:44:06.454Z,1007.8
2019-05-20T07:49:34.815Z,1007.8
2019-05-20T07:55:08.279Z,1007.8
2019-05-20T08:00:41.584Z,1007.8
2019-05-20T08:06:14.744Z,1007.7
2019-05-20T08:11:48.090Z,1007.8
2019-05-20T08:17:21.439Z,1007.8
2019-05-20T08:22:54.450Z,1007.8
2019-05-20T08:28:27.667Z,1007.9
2019-05-20T08:34:00.901Z,1007.9
2019-05-20T08:39:34.477Z,1008
2019-05-20T08:45:07.705Z,1008
2019-05-20T08:50:41.111Z,1008.1
2019-05-20T08:56:14.570Z,1008
2019-05-20T09:01:47.967Z,1008.1
2019-05-20T09:07:21.453Z,1008.1
2019-05-20T09:12:55.167Z,1008
2019-05-20T09:18:28.805Z,1008
2019-05-20T09:24:02.418Z,1008
2019-05-20T09:29:38.044Z,1008.1
2019-05-20T09:35:09.221Z,1008.2
2019-05-20T09:40:42.758Z,1008.3
2019-05-20T09:46:16.124Z,1008.2
2019-05-20T09:51:49.849Z,1008.2
2019-05-20T09:57:23.467Z,1008.3
2019-05-20T10:02:57.217Z,1008.2
2019-05-20T10:08:37.868Z,1008.3
2019-05-20T10:14:04.200Z,1008.2
2019-05-20T10:19:37.546Z,1008.3
2019-05-20T10:25:11.077Z,1008.5
2019-05-20T10:30:44.743Z,1008.5
2019-05-20T10:36:18.489Z,1008.7
2019-05-20T10:41:44.962Z,1008.6
2019-05-20T10:47:18.451Z,1008.7
2019-05-20T10:52:52.169Z,1008.8
2019-05-20T10:58:18.925Z,1008.8
2019-05-20T11:03:52.419Z,1008.8
2019-05-20T11:09:25.842Z,1008.8
2019-05-20T11:14:59.504Z,1008.8
2019-05-20T11:20:33.133Z,1008.9
2019-05-20T11:26:06.754Z,1008.9
2019-05-20T11:31:40.174Z,1009
2019-05-20T11:37:13.718Z,1009
2019-05-20T11:42:47.064Z,1008.9
2019-05-20T11:48:16.165Z,1008.9
2019-05-20T11:53:49.866Z,1008.9
2019-05-20T11:59:23.532Z,1008.9
2019-05-20T12:04:57.180Z,1008.9
2019-05-20T12:10:30.920Z,1009
2019-05-20T12:16:04.471Z,1009
2019-05-20T12:21:38.005Z,1009.1
2019-05-20T12:27:11.672Z,1009.2
2019-05-20T12:32:45.319Z,1009.3
2019-05-20T12:38:18.951Z,1009.2
2019-05-20T12:44:09.327Z,1009.3
2019-05-20T12:49:26.270Z,1009.4
2019-05-20T12:55:07.667Z,1009.4
2019-05-20T13:00:33.221Z,1009.5
2019-05-20T13:06:06.737Z,1009.4
2019-05-20T13:11:40.367Z,1009.4
2019-05-20T13:17:13.851Z,1009.5
2019-05-20T13:22:47.368Z,1009.5
2019-05-20T13:28:20.932Z,1009.5
2019-05-20T13:33:54.411Z,1009.4
2019-05-20T13:39:28.025Z,1009.4
2019-05-20T13:45:01.601Z,1009.5
2019-05-20T13:50:36.723Z,1009.4
2019-05-20T13:56:08.861Z,1009.4
2019-05-20T14:01:42.193Z,1009.3
2019-05-20T14:07:15.821Z,1009.3
2019-05-20T14:12:49.518Z,1009.4
2019-05-20T14:18:23.149Z,1009.4
2019-05-20T14:23:56.867Z,1009.4
2019-05-20T14:29:30.565Z,1009.4
2019-05-20T14:35:04.282Z,1009.5
2019-05-20T14:40:37.984Z,1009.5
2019-05-20T14:46:11.584Z,1009.5
2019-05-20T14:51:45.318Z,1009.5
2019-05-20T14:57:18.950Z,1009.5
2019-05-20T15:02:52.709Z,1009.5
2019-05-20T15:08:26.470Z,1009.4
2019-05-20T15:14:00.655Z,1009.4
2019-05-20T15:19:33.944Z,1009.5
2019-05-20T15:25:07.813Z,1009.5
2019-05-20T15:30:41.558Z,1009.5
2019-05-20T15:36:15.369Z,1009.5
2019-05-20T15:41:49.309Z,1009.5
2019-05-20T15:47:23.088Z,1009.7
2019-05-20T15:52:56.929Z,1009.7
2019-05-20T15:58:30.767Z,1009.7
2019-05-20T16:04:04.523Z,1009.8
2019-05-20T16:09:38.400Z,1009.8
2019-05-20T16:15:12.122Z,1009.8
2019-05-20T16:20:45.970Z,1009.9
2019-05-20T16:26:19.816Z,1009.9
2019-05-20T16:31:53.545Z,1009.9
2019-05-20T16:37:27.271Z,1009.9
2019-05-20T16:43:01.028Z,1010
2019-05-20T16:48:34.771Z,1010.1
2019-05-20T16:54:08.667Z,1010
2019-05-20T16:59:42.323Z,1010
2019-05-20T17:05:16.122Z,1010
2019-05-20T17:10:49.864Z,1010.1
2019-05-20T17:16:23.541Z,1010.1
2019-05-20T17:21:57.273Z,1010.1
2019-05-20T17:27:30.997Z,1010.1
2019-05-20T17:33:04.731Z,1010.2
2019-05-20T17:38:38.432Z,1010.3
2019-05-20T17:44:12.044Z,1010.4
2019-05-20T17:49:45.658Z,1010.4
2019-05-20T17:55:19.671Z,1010.5
2019-05-20T18:00:53.001Z,1010.6
2019-05-20T18:06:27.130Z,1010.6
2019-05-20T18:12:00.354Z,1010.7
2019-05-20T18:17:33.926Z,1010.8
2019-05-20T18:23:07.443Z,1010.9
2019-05-20T18:28:41.072Z,1010.9
2019-05-20T18:34:14.639Z,1010.9
2019-05-20T18:39:48.276Z,1011
2019-05-20T18:45:21.817Z,1010.9
2019-05-20T18:50:55.506Z,1011
2019-05-20T18:56:28.908Z,1011
2019-05-20T19:02:05.317Z,1011
2019-05-20T19:07:36.075Z,1011.2
2019-05-20T19:13:10.867Z,1011.2
2019-05-20T19:18:47.401Z,1011.3
2019-05-20T19:24:20.929Z,1011.3
2019-05-20T19:29:54.389Z,1011.4
2019-05-20T19:35:27.335Z,1011.5
2019-05-20T19:40:59.948Z,1011.6
2019-05-20T19:46:32.676Z,1011.7
2019-05-20T19:52:05.497Z,1011.7
2019-05-20T19:57:38.170Z,1011.7
2019-05-20T20:03:10.891Z,1011.8
2019-05-20T20:08:43.626Z,1011.8
2019-05-20T20:14:16.343Z,1011.8
2019-05-20T20:19:49.200Z,1011.7
2019-05-20T20:25:21.930Z,1011.8
2019-05-20T20:30:54.556Z,1011.9
2019-05-20T20:36:27.238Z,1012
2019-05-20T20:41:59.947Z,1012
2019-05-20T20:47:41.125Z,1012.1
2019-05-20T20:53:05.296Z,1012.1
2019-05-20T20:58:38.038Z,1012.2
2019-05-20T21:04:10.875Z,1012.3
2019-05-20T21:09:43.558Z,1012.4
2019-05-20T21:15:16.232Z,1012.4
2019-05-20T21:20:48.962Z,1012.5
2019-05-20T21:26:21.685Z,1012.6
2019-05-20T21:31:54.284Z,1012.6
2019-05-20T21:37:26.942Z,1012.6
2019-05-20T21:42:59.664Z,1012.7
2019-05-20T21:48:32.372Z,1012.7
2019-05-20T21:54:05.297Z,1012.7
2019-05-20T21:59:37.969Z,1012.7
2019-05-20T22:05:10.768Z,1012.7
2019-05-20T22:10:43.595Z,1013
2019-05-20T22:16:17.032Z,1012.9
2019-05-20T22:21:49.885Z,1012.9
2019-05-20T22:27:23.191Z,1012.9
2019-05-20T22:32:56.518Z,1012.9
2019-05-20T22:38:29.876Z,1012.8
2019-05-20T22:44:02.712Z,1012.8
2019-05-20T22:49:35.893Z,1012.7
2019-05-20T22:55:08.666Z,1012.8
2019-05-20T23:00:41.584Z,1012.7
2019-05-20T23:06:14.331Z,1012.7
2019-05-20T23:11:47.148Z,1012.8
2019-05-20T23:17:20.184Z,1012.7
2019-05-20T23:22:53.297Z,1012.6
2019-05-20T23:28:26.473Z,1012.6
2019-05-20T23:34:12.046Z,1012.6
2019-05-20T23:39:33.004Z,1012.5
2019-05-20T23:45:06.231Z,1012.6
2019-05-20T23:50:39.373Z,1012.7
2019-05-20T23:56:12.427Z,1012.7
